sensor_id;sensor_type;location;lat;lon;timestamp;P1;durP1;ratioP1;P2;durP2;ratioP2
28848;SDS011;15981;43.292;-2.888;2023-01-28T00:01:59;5.72;;;3.47;;
28848;SDS011;15981;43.292;-2.888;2023-01-28T00:04:25;4.47;;;3.25;;
28848;SDS011;15981;43.292;-2.888;2023-01-28T00:06:51;5.95;;;4.05;;
28848;SDS011;15981;43.292;-2.888;2023-01-28T00:09:18;5.60;;;3.15;;
28848;SDS011;15981;43.292;-2.888;2023-01-28T00:11:44;5.70;;;3.92;;
28848;SDS011;15981;43.292;-2.888;2023-01-28T00:14:10;4.45;;;3.28;;
28848;SDS011;15981;43.292;-2.888;2023-01-28T00:16:36;5.57;;;3.60;;
28848;SDS011;15981;43.292;-2.888;2023-01-28T00:19:02;5.03;;;3.47;;
28848;SDS011;15981;43.292;-2.888;2023-01-28T00:21:27;5.22;;;3.00;;
28848;SDS011;15981;43.292;-2.888;2023-01-28T00:23:54;5.40;;;3.65;;
28848;SDS011;15981;43.292;-2.888;2023-01-28T00:26:20;5.97;;;3.83;;
28848;SDS011;15981;43.292;-2.888;2023-01-28T00:28:46;4.60;;;3.30;;
28848;SDS011;15981;43.292;-2.888;2023-01-28T00:31:20;3.78;;;2.97;;
28848;SDS011;15981;43.292;-2.888;2023-01-28T00:33:46;5.15;;;3.40;;
28848;SDS011;15981;43.292;-2.888;2023-01-28T00:36:12;4.90;;;3.33;;
28848;SDS011;15981;43.292;-2.888;2023-01-28T00:38:38;5.18;;;3.40;;
28848;SDS011;15981;43.292;-2.888;2023-01-28T00:41:11;5.60;;;3.53;;
28848;SDS011;15981;43.292;-2.888;2023-01-28T00:43:37;4.63;;;3.38;;
28848;SDS011;15981;43.292;-2.888;2023-01-28T00:46:03;4.45;;;3.20;;
28848;SDS011;15981;43.292;-2.888;2023-01-28T00:48:29;5.38;;;3.83;;
28848;SDS011;15981;43.292;-2.888;2023-01-28T00:50:55;6.07;;;3.97;;
28848;SDS011;15981;43.292;-2.888;2023-01-28T00:53:21;4.55;;;3.38;;
28848;SDS011;15981;43.292;-2.888;2023-01-28T00:55:47;6.50;;;3.67;;
28848;SDS011;15981;43.292;-2.888;2023-01-28T00:58:13;5.97;;;3.88;;
28848;SDS011;15981;43.292;-2.888;2023-01-28T01:00:38;4.78;;;3.55;;
28848;SDS011;15981;43.292;-2.888;2023-01-28T01:03:04;4.72;;;3.78;;
28848;SDS011;15981;43.292;-2.888;2023-01-28T01:05:30;4.78;;;3.78;;
28848;SDS011;15981;43.292;-2.888;2023-01-28T01:07:58;4.70;;;3.78;;
28848;SDS011;15981;43.292;-2.888;2023-01-28T01:10:24;5.20;;;3.60;;
28848;SDS011;15981;43.292;-2.888;2023-01-28T01:12:50;5.70;;;3.90;;
28848;SDS011;15981;43.292;-2.888;2023-01-28T01:15:16;5.22;;;3.80;;
28848;SDS011;15981;43.292;-2.888;2023-01-28T01:17:43;5.57;;;3.78;;
28848;SDS011;15981;43.292;-2.888;2023-01-28T01:20:13;5.65;;;3.83;;
28848;SDS011;15981;43.292;-2.888;2023-01-28T01:22:39;5.32;;;3.35;;
28848;SDS011;15981;43.292;-2.888;2023-01-28T01:25:05;4.85;;;3.33;;
28848;SDS011;15981;43.292;-2.888;2023-01-28T01:27:31;5.55;;;3.92;;
28848;SDS011;15981;43.292;-2.888;2023-01-28T01:29:57;4.95;;;3.45;;
28848;SDS011;15981;43.292;-2.888;2023-01-28T01:32:23;5.22;;;3.78;;
28848;SDS011;15981;43.292;-2.888;2023-01-28T01:34:49;5.80;;;3.60;;
28848;SDS011;15981;43.292;-2.888;2023-01-28T01:37:15;5.18;;;3.55;;
28848;SDS011;15981;43.292;-2.888;2023-01-28T01:39:41;4.55;;;3.75;;
28848;SDS011;15981;43.292;-2.888;2023-01-28T01:42:09;5.18;;;3.60;;
28848;SDS011;15981;43.292;-2.888;2023-01-28T01:47:20;5.22;;;3.67;;
28848;SDS011;15981;43.292;-2.888;2023-01-28T01:49:48;4.10;;;3.30;;
28848;SDS011;15981;43.292;-2.888;2023-01-28T01:52:15;4.97;;;3.60;;
28848;SDS011;15981;43.292;-2.888;2023-01-28T01:54:43;4.68;;;3.50;;
28848;SDS011;15981;43.292;-2.888;2023-01-28T01:57:11;5.43;;;3.67;;
28848;SDS011;15981;43.292;-2.888;2023-01-28T01:59:38;4.45;;;3.30;;
28848;SDS011;15981;43.292;-2.888;2023-01-28T02:02:04;5.55;;;3.42;;
28848;SDS011;15981;43.292;-2.888;2023-01-28T02:04:32;5.13;;;3.80;;
28848;SDS011;15981;43.292;-2.888;2023-01-28T02:07:00;4.78;;;3.75;;
28848;SDS011;15981;43.292;-2.888;2023-01-28T02:09:30;5.68;;;3.85;;
28848;SDS011;15981;43.292;-2.888;2023-01-28T02:11:57;4.95;;;3.78;;
28848;SDS011;15981;43.292;-2.888;2023-01-28T02:14:24;5.03;;;3.55;;
28848;SDS011;15981;43.292;-2.888;2023-01-28T02:16:51;5.90;;;3.88;;
28848;SDS011;15981;43.292;-2.888;2023-01-28T02:19:16;5.43;;;3.75;;
28848;SDS011;15981;43.292;-2.888;2023-01-28T02:22:30;4.53;;;3.72;;
28848;SDS011;15981;43.292;-2.888;2023-01-28T02:29:52;5.95;;;3.85;;
28848;SDS011;15981;43.292;-2.888;2023-01-28T02:32:35;5.35;;;4.10;;
28848;SDS011;15981;43.292;-2.888;2023-01-28T02:35:11;5.45;;;3.78;;
28848;SDS011;15981;43.292;-2.888;2023-01-28T02:40:27;5.88;;;4.05;;
28848;SDS011;15981;43.292;-2.888;2023-01-28T02:42:57;5.40;;;4.18;;
28848;SDS011;15981;43.292;-2.888;2023-01-28T02:45:29;4.68;;;3.90;;
28848;SDS011;15981;43.292;-2.888;2023-01-28T02:48:16;5.57;;;3.92;;
28848;SDS011;15981;43.292;-2.888;2023-01-28T02:50:48;4.68;;;3.75;;
28848;SDS011;15981;43.292;-2.888;2023-01-28T02:56:08;5.43;;;3.97;;
28848;SDS011;15981;43.292;-2.888;2023-01-28T02:58:40;5.47;;;4.20;;
28848;SDS011;15981;43.292;-2.888;2023-01-28T03:03:42;5.38;;;3.88;;
28848;SDS011;15981;43.292;-2.888;2023-01-28T03:06:11;5.25;;;3.92;;
28848;SDS011;15981;43.292;-2.888;2023-01-28T03:08:52;5.28;;;3.85;;
28848;SDS011;15981;43.292;-2.888;2023-01-28T03:11:43;4.65;;;3.47;;
28848;SDS011;15981;43.292;-2.888;2023-01-28T03:14:29;4.55;;;3.65;;
28848;SDS011;15981;43.292;-2.888;2023-01-28T03:17:16;4.68;;;3.53;;
28848;SDS011;15981;43.292;-2.888;2023-01-28T03:20:01;4.68;;;3.75;;
28848;SDS011;15981;43.292;-2.888;2023-01-28T03:22:46;5.18;;;3.60;;
28848;SDS011;15981;43.292;-2.888;2023-01-28T03:25:34;5.82;;;3.72;;
28848;SDS011;15981;43.292;-2.888;2023-01-28T03:28:18;5.00;;;3.42;;
28848;SDS011;15981;43.292;-2.888;2023-01-28T03:31:13;5.50;;;4.00;;
28848;SDS011;15981;43.292;-2.888;2023-01-28T03:33:58;4.43;;;3.60;;
28848;SDS011;15981;43.292;-2.888;2023-01-28T03:36:43;5.30;;;3.72;;
28848;SDS011;15981;43.292;-2.888;2023-01-28T03:39:18;6.30;;;3.60;;
28848;SDS011;15981;43.292;-2.888;2023-01-28T03:44:21;4.75;;;3.38;;
28848;SDS011;15981;43.292;-2.888;2023-01-28T03:47:05;5.20;;;3.85;;
28848;SDS011;15981;43.292;-2.888;2023-01-28T03:49:33;4.63;;;3.45;;
28848;SDS011;15981;43.292;-2.888;2023-01-28T03:51:59;4.80;;;3.38;;
28848;SDS011;15981;43.292;-2.888;2023-01-28T03:54:25;4.03;;;3.33;;
28848;SDS011;15981;43.292;-2.888;2023-01-28T03:56:50;5.38;;;3.50;;
28848;SDS011;15981;43.292;-2.888;2023-01-28T03:59:16;5.43;;;3.78;;
28848;SDS011;15981;43.292;-2.888;2023-01-28T04:01:42;4.88;;;3.53;;
28848;SDS011;15981;43.292;-2.888;2023-01-28T04:04:07;5.10;;;3.47;;
28848;SDS011;15981;43.292;-2.888;2023-01-28T04:06:47;4.53;;;3.42;;
28848;SDS011;15981;43.292;-2.888;2023-01-28T04:09:13;4.63;;;3.63;;
28848;SDS011;15981;43.292;-2.888;2023-01-28T04:11:39;6.18;;;3.78;;
28848;SDS011;15981;43.292;-2.888;2023-01-28T04:14:04;4.53;;;3.50;;
28848;SDS011;15981;43.292;-2.888;2023-01-28T04:16:30;4.50;;;3.75;;
28848;SDS011;15981;43.292;-2.888;2023-01-28T04:18:56;4.43;;;3.13;;
28848;SDS011;15981;43.292;-2.888;2023-01-28T04:21:23;4.68;;;3.47;;
28848;SDS011;15981;43.292;-2.888;2023-01-28T04:23:48;4.85;;;3.42;;
28848;SDS011;15981;43.292;-2.888;2023-01-28T04:26:14;4.55;;;3.85;;
28848;SDS011;15981;43.292;-2.888;2023-01-28T04:28:40;4.63;;;3.53;;
28848;SDS011;15981;43.292;-2.888;2023-01-28T04:31:06;4.38;;;3.50;;
28848;SDS011;15981;43.292;-2.888;2023-01-28T04:33:31;4.38;;;3.45;;
28848;SDS011;15981;43.292;-2.888;2023-01-28T04:35:57;4.25;;;3.20;;
28848;SDS011;15981;43.292;-2.888;2023-01-28T04:38:23;4.10;;;3.05;;
28848;SDS011;15981;43.292;-2.888;2023-01-28T04:40:52;4.50;;;3.40;;
28848;SDS011;15981;43.292;-2.888;2023-01-28T04:43:18;3.70;;;3.13;;
28848;SDS011;15981;43.292;-2.888;2023-01-28T04:45:47;4.38;;;3.33;;
28848;SDS011;15981;43.292;-2.888;2023-01-28T04:48:13;5.10;;;3.30;;
28848;SDS011;15981;43.292;-2.888;2023-01-28T04:50:39;4.35;;;3.72;;
28848;SDS011;15981;43.292;-2.888;2023-01-28T04:53:05;4.10;;;3.25;;
28848;SDS011;15981;43.292;-2.888;2023-01-28T04:55:31;5.07;;;3.55;;
28848;SDS011;15981;43.292;-2.888;2023-01-28T04:57:56;5.43;;;3.40;;
28848;SDS011;15981;43.292;-2.888;2023-01-28T05:00:22;5.13;;;3.30;;
28848;SDS011;15981;43.292;-2.888;2023-01-28T05:02:48;5.75;;;3.60;;
28848;SDS011;15981;43.292;-2.888;2023-01-28T05:05:13;5.05;;;3.30;;
28848;SDS011;15981;43.292;-2.888;2023-01-28T05:07:39;4.00;;;3.05;;
28848;SDS011;15981;43.292;-2.888;2023-01-28T05:10:05;4.25;;;3.00;;
28848;SDS011;15981;43.292;-2.888;2023-01-28T05:12:31;4.25;;;3.25;;
28848;SDS011;15981;43.292;-2.888;2023-01-28T05:14:58;4.50;;;3.30;;
28848;SDS011;15981;43.292;-2.888;2023-01-28T05:17:27;3.55;;;2.85;;
28848;SDS011;15981;43.292;-2.888;2023-01-28T05:19:52;4.53;;;3.28;;
28848;SDS011;15981;43.292;-2.888;2023-01-28T05:22:18;3.78;;;3.10;;
28848;SDS011;15981;43.292;-2.888;2023-01-28T05:24:44;4.03;;;3.20;;
28848;SDS011;15981;43.292;-2.888;2023-01-28T05:27:10;4.07;;;3.35;;
28848;SDS011;15981;43.292;-2.888;2023-01-28T05:29:36;3.90;;;3.05;;
28848;SDS011;15981;43.292;-2.888;2023-01-28T05:32:01;4.00;;;2.97;;
28848;SDS011;15981;43.292;-2.888;2023-01-28T05:34:27;3.53;;;2.83;;
28848;SDS011;15981;43.292;-2.888;2023-01-28T05:36:53;3.70;;;3.05;;
28848;SDS011;15981;43.292;-2.888;2023-01-28T05:39:18;3.83;;;2.90;;
28848;SDS011;15981;43.292;-2.888;2023-01-28T05:41:44;3.60;;;2.80;;
28848;SDS011;15981;43.292;-2.888;2023-01-28T05:44:10;4.13;;;2.97;;
28848;SDS011;15981;43.292;-2.888;2023-01-28T05:46:36;4.05;;;2.97;;
28848;SDS011;15981;43.292;-2.888;2023-01-28T05:49:01;3.47;;;2.92;;
28848;SDS011;15981;43.292;-2.888;2023-01-28T05:51:27;3.05;;;2.70;;
28848;SDS011;15981;43.292;-2.888;2023-01-28T05:53:53;3.97;;;3.00;;
28848;SDS011;15981;43.292;-2.888;2023-01-28T05:56:18;4.15;;;2.80;;
28848;SDS011;15981;43.292;-2.888;2023-01-28T05:58:44;3.95;;;2.70;;
28848;SDS011;15981;43.292;-2.888;2023-01-28T06:01:10;4.07;;;2.90;;
28848;SDS011;15981;43.292;-2.888;2023-01-28T06:03:36;3.95;;;2.97;;
28848;SDS011;15981;43.292;-2.888;2023-01-28T06:06:01;3.80;;;3.15;;
28848;SDS011;15981;43.292;-2.888;2023-01-28T06:08:27;3.67;;;2.90;;
28848;SDS011;15981;43.292;-2.888;2023-01-28T06:10:53;3.28;;;2.80;;
28848;SDS011;15981;43.292;-2.888;2023-01-28T06:13:18;3.60;;;2.70;;
28848;SDS011;15981;43.292;-2.888;2023-01-28T06:15:47;4.68;;;2.90;;
28848;SDS011;15981;43.292;-2.888;2023-01-28T06:18:12;4.57;;;3.20;;
28848;SDS011;15981;43.292;-2.888;2023-01-28T06:20:38;3.75;;;2.63;;
28848;SDS011;15981;43.292;-2.888;2023-01-28T06:23:04;4.55;;;3.15;;
28848;SDS011;15981;43.292;-2.888;2023-01-28T06:25:30;3.90;;;2.72;;
28848;SDS011;15981;43.292;-2.888;2023-01-28T06:27:55;4.00;;;2.80;;
28848;SDS011;15981;43.292;-2.888;2023-01-28T06:30:21;3.08;;;2.47;;
28848;SDS011;15981;43.292;-2.888;2023-01-28T06:32:52;3.33;;;2.58;;
28848;SDS011;15981;43.292;-2.888;2023-01-28T06:35:17;2.80;;;2.47;;
28848;SDS011;15981;43.292;-2.888;2023-01-28T06:37:43;4.03;;;2.70;;
28848;SDS011;15981;43.292;-2.888;2023-01-28T06:40:10;3.58;;;2.72;;
28848;SDS011;15981;43.292;-2.888;2023-01-28T06:42:35;3.75;;;2.80;;
28848;SDS011;15981;43.292;-2.888;2023-01-28T06:45:01;3.58;;;2.75;;
28848;SDS011;15981;43.292;-2.888;2023-01-28T06:47:27;4.63;;;2.88;;
28848;SDS011;15981;43.292;-2.888;2023-01-28T06:49:53;3.47;;;3.00;;
28848;SDS011;15981;43.292;-2.888;2023-01-28T06:52:18;3.60;;;2.55;;
28848;SDS011;15981;43.292;-2.888;2023-01-28T06:54:44;3.22;;;2.70;;
28848;SDS011;15981;43.292;-2.888;2023-01-28T06:57:10;3.25;;;2.63;;
28848;SDS011;15981;43.292;-2.888;2023-01-28T06:59:36;3.20;;;2.40;;
28848;SDS011;15981;43.292;-2.888;2023-01-28T07:02:01;3.95;;;2.83;;
28848;SDS011;15981;43.292;-2.888;2023-01-28T07:04:27;3.55;;;2.67;;
28848;SDS011;15981;43.292;-2.888;2023-01-28T07:06:53;3.75;;;2.83;;
28848;SDS011;15981;43.292;-2.888;2023-01-28T07:09:18;4.68;;;2.90;;
28848;SDS011;15981;43.292;-2.888;2023-01-28T07:11:44;9.95;;;4.00;;
28848;SDS011;15981;43.292;-2.888;2023-01-28T11:13:26;6.18;;;4.25;;
28848;SDS011;15981;43.292;-2.888;2023-01-28T11:18:32;6.28;;;4.45;;
28848;SDS011;15981;43.292;-2.888;2023-01-28T11:21:13;7.63;;;4.13;;
28848;SDS011;15981;43.292;-2.888;2023-01-28T11:23:45;6.75;;;4.38;;
28848;SDS011;15981;43.292;-2.888;2023-01-28T11:26:14;7.88;;;5.20;;
28848;SDS011;15981;43.292;-2.888;2023-01-28T11:28:41;8.32;;;4.70;;
28848;SDS011;15981;43.292;-2.888;2023-01-28T11:31:08;7.38;;;4.90;;
28848;SDS011;15981;43.292;-2.888;2023-01-28T11:33:36;7.40;;;4.60;;
28848;SDS011;15981;43.292;-2.888;2023-01-28T11:36:12;8.73;;;5.18;;
28848;SDS011;15981;43.292;-2.888;2023-01-28T11:41:14;9.00;;;5.05;;
28848;SDS011;15981;43.292;-2.888;2023-01-28T11:43:40;8.82;;;4.80;;
28848;SDS011;15981;43.292;-2.888;2023-01-28T11:49:01;7.13;;;4.55;;
28848;SDS011;15981;43.292;-2.888;2023-01-28T11:52:16;7.38;;;4.68;;
28848;SDS011;15981;43.292;-2.888;2023-01-28T11:59:26;7.27;;;4.30;;
28848;SDS011;15981;43.292;-2.888;2023-01-28T12:36:00;4.47;;;3.35;;
28848;SDS011;15981;43.292;-2.888;2023-01-28T12:41:14;5.10;;;3.20;;
28848;SDS011;15981;43.292;-2.888;2023-01-28T12:46:25;4.87;;;3.20;;
28848;SDS011;15981;43.292;-2.888;2023-01-28T12:48:58;5.97;;;3.27;;
28848;SDS011;15981;43.292;-2.888;2023-01-28T12:56:50;59.28;;;45.88;;
28848;SDS011;15981;43.292;-2.888;2023-01-28T12:59:31;76.43;;;57.65;;
28848;SDS011;15981;43.292;-2.888;2023-01-28T13:04:36;73.85;;;58.17;;
28848;SDS011;15981;43.292;-2.888;2023-01-28T13:07:09;76.13;;;58.20;;
28848;SDS011;15981;43.292;-2.888;2023-01-28T13:09:38;75.93;;;56.28;;
28848;SDS011;15981;43.292;-2.888;2023-01-28T13:12:06;85.60;;;63.20;;
28848;SDS011;15981;43.292;-2.888;2023-01-28T13:14:34;76.63;;;59.08;;
28848;SDS011;15981;43.292;-2.888;2023-01-28T13:17:10;77.53;;;59.80;;
28848;SDS011;15981;43.292;-2.888;2023-01-28T13:19:37;76.75;;;59.97;;
28848;SDS011;15981;43.292;-2.888;2023-01-28T13:25:17;76.20;;;58.97;;
28848;SDS011;15981;43.292;-2.888;2023-01-28T13:27:52;72.33;;;56.20;;
28848;SDS011;15981;43.292;-2.888;2023-01-28T13:30:25;71.90;;;55.10;;
28848;SDS011;15981;43.292;-2.888;2023-01-28T13:33:02;70.57;;;54.28;;
28848;SDS011;15981;43.292;-2.888;2023-01-28T13:35:29;68.78;;;53.03;;
28848;SDS011;15981;43.292;-2.888;2023-01-28T13:37:55;67.70;;;52.72;;
28848;SDS011;15981;43.292;-2.888;2023-01-28T13:40:28;67.45;;;51.83;;
28848;SDS011;15981;43.292;-2.888;2023-01-28T13:42:58;64.70;;;49.80;;
28848;SDS011;15981;43.292;-2.888;2023-01-28T13:45:25;62.67;;;48.58;;
28848;SDS011;15981;43.292;-2.888;2023-01-28T13:47:55;64.93;;;48.47;;
28848;SDS011;15981;43.292;-2.888;2023-01-28T13:50:23;60.88;;;47.72;;
28848;SDS011;15981;43.292;-2.888;2023-01-28T13:55:37;57.55;;;44.45;;
28848;SDS011;15981;43.292;-2.888;2023-01-28T14:18:38;38.90;;;28.52;;
28848;SDS011;15981;43.292;-2.888;2023-01-28T14:21:11;36.22;;;25.30;;
28848;SDS011;15981;43.292;-2.888;2023-01-28T14:23:37;37.95;;;25.98;;
28848;SDS011;15981;43.292;-2.888;2023-01-28T14:26:29;40.50;;;26.23;;
28848;SDS011;15981;43.292;-2.888;2023-01-28T14:31:32;31.88;;;21.73;;
28848;SDS011;15981;43.292;-2.888;2023-01-28T14:36:43;27.35;;;19.08;;
28848;SDS011;15981;43.292;-2.888;2023-01-28T14:39:19;27.83;;;19.55;;
28848;SDS011;15981;43.292;-2.888;2023-01-28T14:41:47;25.80;;;18.02;;
28848;SDS011;15981;43.292;-2.888;2023-01-28T14:44:32;22.65;;;16.23;;
28848;SDS011;15981;43.292;-2.888;2023-01-28T14:52:10;22.33;;;14.77;;
28848;SDS011;15981;43.292;-2.888;2023-01-28T15:02:19;18.40;;;13.00;;
28848;SDS011;15981;43.292;-2.888;2023-01-28T15:04:46;15.70;;;12.00;;
28848;SDS011;15981;43.292;-2.888;2023-01-28T15:07:22;16.58;;;11.63;;
28848;SDS011;15981;43.292;-2.888;2023-01-28T15:10:01;14.52;;;10.10;;
28848;SDS011;15981;43.292;-2.888;2023-01-28T15:12:27;15.98;;;10.70;;
28848;SDS011;15981;43.292;-2.888;2023-01-28T15:14:53;15.65;;;10.05;;
28848;SDS011;15981;43.292;-2.888;2023-01-28T15:17:23;12.02;;;8.60;;
28848;SDS011;15981;43.292;-2.888;2023-01-28T15:19:51;13.55;;;9.00;;
28848;SDS011;15981;43.292;-2.888;2023-01-28T15:22:18;11.45;;;8.30;;
28848;SDS011;15981;43.292;-2.888;2023-01-28T15:24:46;11.90;;;7.97;;
28848;SDS011;15981;43.292;-2.888;2023-01-28T15:27:14;12.30;;;8.02;;
28848;SDS011;15981;43.292;-2.888;2023-01-28T15:29:41;10.02;;;7.78;;
28848;SDS011;15981;43.292;-2.888;2023-01-28T15:32:22;8.68;;;6.80;;
28848;SDS011;15981;43.292;-2.888;2023-01-28T15:34:48;7.77;;;5.90;;
28848;SDS011;15981;43.292;-2.888;2023-01-28T15:37:14;9.63;;;5.88;;
28848;SDS011;15981;43.292;-2.888;2023-01-28T15:39:40;8.10;;;5.80;;
28848;SDS011;15981;43.292;-2.888;2023-01-28T15:42:06;7.80;;;5.63;;
28848;SDS011;15981;43.292;-2.888;2023-01-28T15:44:33;7.20;;;5.45;;
28848;SDS011;15981;43.292;-2.888;2023-01-28T15:47:00;9.85;;;5.63;;
28848;SDS011;15981;43.292;-2.888;2023-01-28T15:49:33;6.82;;;5.30;;
28848;SDS011;15981;43.292;-2.888;2023-01-28T15:52:00;7.75;;;5.10;;
28848;SDS011;15981;43.292;-2.888;2023-01-28T15:54:26;6.38;;;4.75;;
28848;SDS011;15981;43.292;-2.888;2023-01-28T15:56:52;8.50;;;5.10;;
28848;SDS011;15981;43.292;-2.888;2023-01-28T15:59:20;6.47;;;4.97;;
28848;SDS011;15981;43.292;-2.888;2023-01-28T16:01:49;9.10;;;4.97;;
28848;SDS011;15981;43.292;-2.888;2023-01-28T16:04:21;7.88;;;4.35;;
28848;SDS011;15981;43.292;-2.888;2023-01-28T16:06:47;5.30;;;4.43;;
28848;SDS011;15981;43.292;-2.888;2023-01-28T16:09:20;6.47;;;4.47;;
28848;SDS011;15981;43.292;-2.888;2023-01-28T16:11:47;6.10;;;4.63;;
28848;SDS011;15981;43.292;-2.888;2023-01-28T16:14:47;5.97;;;4.25;;
28848;SDS011;15981;43.292;-2.888;2023-01-28T16:17:05;5.70;;;4.30;;
28848;SDS011;15981;43.292;-2.888;2023-01-28T16:19:32;6.68;;;4.00;;
28848;SDS011;15981;43.292;-2.888;2023-01-28T16:21:58;6.90;;;5.03;;
28848;SDS011;15981;43.292;-2.888;2023-01-28T16:24:25;5.32;;;3.85;;
28848;SDS011;15981;43.292;-2.888;2023-01-28T16:27:01;5.88;;;4.00;;
28848;SDS011;15981;43.292;-2.888;2023-01-28T16:29:28;4.55;;;3.40;;
28848;SDS011;15981;43.292;-2.888;2023-01-28T16:31:54;4.10;;;3.70;;
28848;SDS011;15981;43.292;-2.888;2023-01-28T16:34:21;6.40;;;4.07;;
28848;SDS011;15981;43.292;-2.888;2023-01-28T16:36:49;6.25;;;4.05;;
28848;SDS011;15981;43.292;-2.888;2023-01-28T16:39:14;8.77;;;3.70;;
28848;SDS011;15981;43.292;-2.888;2023-01-28T16:41:41;4.78;;;3.35;;
28848;SDS011;15981;43.292;-2.888;2023-01-28T16:44:11;4.43;;;3.15;;
28848;SDS011;15981;43.292;-2.888;2023-01-28T16:46:36;4.75;;;3.13;;
28848;SDS011;15981;43.292;-2.888;2023-01-28T16:49:02;7.10;;;3.35;;
28848;SDS011;15981;43.292;-2.888;2023-01-28T16:51:28;7.07;;;3.10;;
28848;SDS011;15981;43.292;-2.888;2023-01-28T16:53:54;3.85;;;2.88;;
28848;SDS011;15981;43.292;-2.888;2023-01-28T16:56:21;4.85;;;3.10;;
28848;SDS011;15981;43.292;-2.888;2023-01-28T16:58:47;3.58;;;2.88;;
28848;SDS011;15981;43.292;-2.888;2023-01-28T17:01:13;4.38;;;2.70;;
28848;SDS011;15981;43.292;-2.888;2023-01-28T17:03:39;4.00;;;2.90;;
28848;SDS011;15981;43.292;-2.888;2023-01-28T17:06:05;4.57;;;2.67;;
28848;SDS011;15981;43.292;-2.888;2023-01-28T17:08:31;3.45;;;2.90;;
28848;SDS011;15981;43.292;-2.888;2023-01-28T17:10:57;6.68;;;3.00;;
28848;SDS011;15981;43.292;-2.888;2023-01-28T17:13:23;2.95;;;2.65;;
28848;SDS011;15981;43.292;-2.888;2023-01-28T17:15:49;4.65;;;3.40;;
28848;SDS011;15981;43.292;-2.888;2023-01-28T17:18:15;3.97;;;2.97;;
28848;SDS011;15981;43.292;-2.888;2023-01-28T17:20:41;4.60;;;2.80;;
28848;SDS011;15981;43.292;-2.888;2023-01-28T17:23:07;6.63;;;2.95;;
28848;SDS011;15981;43.292;-2.888;2023-01-28T17:25:39;3.92;;;2.60;;
28848;SDS011;15981;43.292;-2.888;2023-01-28T17:28:06;5.07;;;2.85;;
28848;SDS011;15981;43.292;-2.888;2023-01-28T17:30:32;3.75;;;2.55;;
28848;SDS011;15981;43.292;-2.888;2023-01-28T17:32:58;5.38;;;2.60;;
28848;SDS011;15981;43.292;-2.888;2023-01-28T17:35:23;3.90;;;3.13;;
28848;SDS011;15981;43.292;-2.888;2023-01-28T17:37:52;4.45;;;2.50;;
28848;SDS011;15981;43.292;-2.888;2023-01-28T17:40:18;3.60;;;2.58;;
28848;SDS011;15981;43.292;-2.888;2023-01-28T17:42:44;3.33;;;2.40;;
28848;SDS011;15981;43.292;-2.888;2023-01-28T17:45:10;2.90;;;2.60;;
28848;SDS011;15981;43.292;-2.888;2023-01-28T17:47:35;4.40;;;2.50;;
28848;SDS011;15981;43.292;-2.888;2023-01-28T17:50:01;2.97;;;2.53;;
28848;SDS011;15981;43.292;-2.888;2023-01-28T17:52:28;2.50;;;2.20;;
28848;SDS011;15981;43.292;-2.888;2023-01-28T17:54:54;3.35;;;3.00;;
28848;SDS011;15981;43.292;-2.888;2023-01-28T17:57:19;3.83;;;2.97;;
28848;SDS011;15981;43.292;-2.888;2023-01-28T17:59:45;3.13;;;2.42;;
28848;SDS011;15981;43.292;-2.888;2023-01-28T18:02:11;4.22;;;3.03;;
28848;SDS011;15981;43.292;-2.888;2023-01-28T18:04:38;4.20;;;3.60;;
28848;SDS011;15981;43.292;-2.888;2023-01-28T18:07:04;5.10;;;3.50;;
28848;SDS011;15981;43.292;-2.888;2023-01-28T18:09:41;5.03;;;3.35;;
28848;SDS011;15981;43.292;-2.888;2023-01-28T18:12:10;4.07;;;3.00;;
28848;SDS011;15981;43.292;-2.888;2023-01-28T18:14:36;3.60;;;3.05;;
28848;SDS011;15981;43.292;-2.888;2023-01-28T18:17:02;4.18;;;3.38;;
28848;SDS011;15981;43.292;-2.888;2023-01-28T18:19:28;4.70;;;3.50;;
28848;SDS011;15981;43.292;-2.888;2023-01-28T18:21:54;5.00;;;3.65;;
28848;SDS011;15981;43.292;-2.888;2023-01-28T18:24:23;5.50;;;3.90;;
28848;SDS011;15981;43.292;-2.888;2023-01-28T18:26:53;3.88;;;3.45;;
28848;SDS011;15981;43.292;-2.888;2023-01-28T18:29:25;4.63;;;3.75;;
28848;SDS011;15981;43.292;-2.888;2023-01-28T18:31:52;4.68;;;3.65;;
28848;SDS011;15981;43.292;-2.888;2023-01-28T18:34:21;4.50;;;3.55;;
28848;SDS011;15981;43.292;-2.888;2023-01-28T18:36:47;4.60;;;4.13;;
28848;SDS011;15981;43.292;-2.888;2023-01-28T18:39:14;5.60;;;3.90;;
28848;SDS011;15981;43.292;-2.888;2023-01-28T18:41:40;4.82;;;3.75;;
28848;SDS011;15981;43.292;-2.888;2023-01-28T18:44:07;5.22;;;3.90;;
28848;SDS011;15981;43.292;-2.888;2023-01-28T18:46:33;4.68;;;3.90;;
28848;SDS011;15981;43.292;-2.888;2023-01-28T18:48:59;5.22;;;4.07;;
28848;SDS011;15981;43.292;-2.888;2023-01-28T18:51:24;4.60;;;4.07;;
28848;SDS011;15981;43.292;-2.888;2023-01-28T18:53:50;5.50;;;4.00;;
28848;SDS011;15981;43.292;-2.888;2023-01-28T18:56:16;5.40;;;4.50;;
28848;SDS011;15981;43.292;-2.888;2023-01-28T18:58:42;5.20;;;4.63;;
28848;SDS011;15981;43.292;-2.888;2023-01-28T19:01:08;5.07;;;4.53;;
28848;SDS011;15981;43.292;-2.888;2023-01-28T19:03:34;4.90;;;4.40;;
28848;SDS011;15981;43.292;-2.888;2023-01-28T19:06:07;5.55;;;4.22;;
28848;SDS011;15981;43.292;-2.888;2023-01-28T19:08:33;6.07;;;4.80;;
28848;SDS011;15981;43.292;-2.888;2023-01-28T19:10:59;5.47;;;4.40;;
28848;SDS011;15981;43.292;-2.888;2023-01-28T19:13:25;4.90;;;4.18;;
28848;SDS011;15981;43.292;-2.888;2023-01-28T19:15:50;6.65;;;4.68;;
28848;SDS011;15981;43.292;-2.888;2023-01-28T19:18:16;5.75;;;4.65;;
28848;SDS011;15981;43.292;-2.888;2023-01-28T19:20:42;5.45;;;4.05;;
28848;SDS011;15981;43.292;-2.888;2023-01-28T19:23:08;6.45;;;4.95;;
28848;SDS011;15981;43.292;-2.888;2023-01-28T19:25:37;5.82;;;4.72;;
28848;SDS011;15981;43.292;-2.888;2023-01-28T19:28:03;6.75;;;5.15;;
28848;SDS011;15981;43.292;-2.888;2023-01-28T19:30:28;5.85;;;4.85;;
28848;SDS011;15981;43.292;-2.888;2023-01-28T19:32:54;5.95;;;4.95;;
28848;SDS011;15981;43.292;-2.888;2023-01-28T19:35:20;6.85;;;5.40;;
28848;SDS011;15981;43.292;-2.888;2023-01-28T19:37:46;5.18;;;4.40;;
28848;SDS011;15981;43.292;-2.888;2023-01-28T19:40:12;6.60;;;4.90;;
28848;SDS011;15981;43.292;-2.888;2023-01-28T19:42:38;7.63;;;5.65;;
28848;SDS011;15981;43.292;-2.888;2023-01-28T19:45:03;6.50;;;5.65;;
28848;SDS011;15981;43.292;-2.888;2023-01-28T19:47:31;6.00;;;5.18;;
28848;SDS011;15981;43.292;-2.888;2023-01-28T19:49:56;7.68;;;5.75;;
28848;SDS011;15981;43.292;-2.888;2023-01-28T19:52:22;8.50;;;6.43;;
28848;SDS011;15981;43.292;-2.888;2023-01-28T19:54:48;9.63;;;6.18;;
28848;SDS011;15981;43.292;-2.888;2023-01-28T19:57:14;8.13;;;6.07;;
28848;SDS011;15981;43.292;-2.888;2023-01-28T19:59:40;7.72;;;5.75;;
28848;SDS011;15981;43.292;-2.888;2023-01-28T20:02:05;7.45;;;5.75;;
28848;SDS011;15981;43.292;-2.888;2023-01-28T20:04:31;6.88;;;5.60;;
28848;SDS011;15981;43.292;-2.888;2023-01-28T20:06:57;8.70;;;6.20;;
28848;SDS011;15981;43.292;-2.888;2023-01-28T20:09:23;7.65;;;5.95;;
28848;SDS011;15981;43.292;-2.888;2023-01-28T20:11:49;7.43;;;5.75;;
28848;SDS011;15981;43.292;-2.888;2023-01-28T20:14:14;6.80;;;5.45;;
28848;SDS011;15981;43.292;-2.888;2023-01-28T20:16:42;7.07;;;5.80;;
28848;SDS011;15981;43.292;-2.888;2023-01-28T20:19:12;7.78;;;6.13;;
28848;SDS011;15981;43.292;-2.888;2023-01-28T20:21:38;8.65;;;6.70;;
28848;SDS011;15981;43.292;-2.888;2023-01-28T20:24:04;8.45;;;6.25;;
28848;SDS011;15981;43.292;-2.888;2023-01-28T20:26:32;9.23;;;6.63;;
28848;SDS011;15981;43.292;-2.888;2023-01-28T20:29:02;8.00;;;6.35;;
28848;SDS011;15981;43.292;-2.888;2023-01-28T20:31:28;7.55;;;5.93;;
28848;SDS011;15981;43.292;-2.888;2023-01-28T20:33:54;8.50;;;6.25;;
28848;SDS011;15981;43.292;-2.888;2023-01-28T20:36:20;7.55;;;6.30;;
28848;SDS011;15981;43.292;-2.888;2023-01-28T20:38:46;9.52;;;6.65;;
28848;SDS011;15981;43.292;-2.888;2023-01-28T20:41:16;8.52;;;6.60;;